createdAt,value
2023-04-13T00:01:36.762Z,38.79
2023-04-13T00:04:39.581Z,38.67
2023-04-13T00:07:43.705Z,38.81
2023-04-13T00:10:46.477Z,38.36
2023-04-13T00:13:51.221Z,38.63
2023-04-13T00:16:54.030Z,38.61
2023-04-13T00:19:58.204Z,38.86
2023-04-13T00:23:02.347Z,38.70
2023-04-13T00:26:05.280Z,38.62
2023-04-13T00:29:08.305Z,38.71
2023-04-13T00:32:11.232Z,38.92
2023-04-13T00:35:16.822Z,38.85
2023-04-13T00:38:21.060Z,38.96
2023-04-13T00:41:24.276Z,38.87
2023-04-13T00:44:28.582Z,39.08
2023-04-13T00:47:34.072Z,39.03
2023-04-13T00:50:36.939Z,39.08
2023-04-13T00:53:41.604Z,39.07
2023-04-13T00:56:44.726Z,39.31
2023-04-13T00:59:49.467Z,39.44
2023-04-13T01:02:52.803Z,39.44
2023-04-13T01:05:57.394Z,39.37
2023-04-13T01:09:08.435Z,39.42
2023-04-13T01:12:15.225Z,39.65
2023-04-13T01:15:18.828Z,39.79
2023-04-13T01:18:22.832Z,39.81
2023-04-13T01:21:27.848Z,39.78
2023-04-13T01:24:39.324Z,40.04
2023-04-13T01:27:47.143Z,39.95
2023-04-13T01:30:50.881Z,39.98
2023-04-13T01:33:54.064Z,40.09
2023-04-13T01:36:57.203Z,40.01
2023-04-13T01:40:00.199Z,40.15
2023-04-13T01:43:04.462Z,39.96
2023-04-13T01:46:10.418Z,39.82
2023-04-13T01:49:16.211Z,40.13
2023-04-13T01:52:21.060Z,40.12
2023-04-13T01:55:24.423Z,40.01
2023-04-13T01:58:29.269Z,40.15
2023-04-13T02:01:32.055Z,40.10
2023-04-13T02:04:35.164Z,39.98
2023-04-13T02:07:38.758Z,40.00
2023-04-13T02:10:42.486Z,40.12
2023-04-13T02:13:47.402Z,40.04
2023-04-13T02:16:50.264Z,40.19
2023-04-13T02:19:53.071Z,40.47
2023-04-13T02:22:56.152Z,40.43
2023-04-13T02:25:58.963Z,40.55
2023-04-13T02:29:03.150Z,40.03
2023-04-13T02:32:06.913Z,40.53
2023-04-13T02:35:11.104Z,40.39
2023-04-13T02:38:13.912Z,40.33
2023-04-13T02:41:17.208Z,40.35
2023-04-13T02:44:22.240Z,40.31
2023-04-13T02:47:25.034Z,40.33
2023-04-13T02:50:28.074Z,40.13
2023-04-13T02:53:30.873Z,40.14
2023-04-13T02:56:35.920Z,40.03
2023-04-13T02:59:40.088Z,40.13
2023-04-13T03:02:42.937Z,40.18
2023-04-13T03:05:46.092Z,40.17
2023-04-13T03:08:48.897Z,40.00
2023-04-13T03:11:51.760Z,40.01
2023-04-13T03:14:55.974Z,39.97
2023-04-13T03:18:00.250Z,39.96
2023-04-13T03:21:06.014Z,39.99
2023-04-13T03:24:09.093Z,40.00
2023-04-13T03:27:11.908Z,40.06
2023-04-13T03:30:16.106Z,40.42
2023-04-13T03:33:18.849Z,40.13
2023-04-13T03:36:22.742Z,40.17
2023-04-13T03:39:25.609Z,40.13
2023-04-13T03:42:28.379Z,40.24
2023-04-13T03:45:32.604Z,40.22
2023-04-13T03:48:35.387Z,40.41
2023-04-13T03:51:38.488Z,40.29
2023-04-13T03:54:42.607Z,40.48
2023-04-13T03:57:45.470Z,40.24
2023-04-13T04:00:49.680Z,40.30
2023-04-13T04:03:57.296Z,40.30
2023-04-13T04:07:00.626Z,40.17
2023-04-13T04:10:03.420Z,40.26
2023-04-13T04:13:06.177Z,40.27
2023-04-13T04:16:11.623Z,40.24
2023-04-13T04:19:14.571Z,40.32
2023-04-13T04:22:17.450Z,40.25
2023-04-13T04:25:22.692Z,40.25
2023-04-13T04:28:25.538Z,40.14
2023-04-13T04:31:32.572Z,40.15
2023-04-13T04:34:35.945Z,40.08
2023-04-13T04:37:39.038Z,39.98
2023-04-13T04:40:45.268Z,40.05
2023-04-13T04:43:49.610Z,40.13
2023-04-13T04:46:54.263Z,40.22
2023-04-13T04:49:58.136Z,40.21
2023-04-13T04:53:00.982Z,40.34
2023-04-13T04:56:03.818Z,40.10
2023-04-13T04:59:06.757Z,40.23
2023-04-13T05:02:10.884Z,40.33
2023-04-13T05:05:13.797Z,40.37
2023-04-13T05:08:16.607Z,40.39
2023-04-13T05:11:20.756Z,40.59
2023-04-13T05:14:23.550Z,40.53
2023-04-13T05:17:27.680Z,40.45
2023-04-13T05:20:30.432Z,40.51
2023-04-13T05:23:33.241Z,40.44
2023-04-13T05:26:36.028Z,40.26
2023-04-13T05:29:38.823Z,40.04
2023-04-13T05:32:43.850Z,40.38
2023-04-13T05:35:46.718Z,40.59
2023-04-13T05:38:49.528Z,40.59
2023-04-13T05:41:52.428Z,40.39
2023-04-13T05:44:55.351Z,40.38
2023-04-13T05:47:59.792Z,40.54
2023-04-13T05:51:02.593Z,40.46
2023-04-13T05:54:05.752Z,40.64
2023-04-13T05:57:08.501Z,40.57
2023-04-13T06:00:12.356Z,40.47
2023-04-13T06:03:17.991Z,40.54
2023-04-13T06:06:21.316Z,40.72
2023-04-13T06:09:25.163Z,40.58
2023-04-13T06:12:27.906Z,40.78
2023-04-13T06:15:31.854Z,40.71
2023-04-13T06:18:35.984Z,40.71
2023-04-13T06:21:39.792Z,40.66
2023-04-13T06:24:42.569Z,41.05
2023-04-13T06:27:46.551Z,40.66
2023-04-13T06:30:49.437Z,40.86
2023-04-13T06:33:53.799Z,40.89
2023-04-13T06:36:57.633Z,41.01
2023-04-13T06:40:02.765Z,40.85
2023-04-13T06:43:08.896Z,40.83
2023-04-13T06:46:14.626Z,40.77
2023-04-13T06:49:18.956Z,40.83
2023-04-13T06:52:21.766Z,40.81
2023-04-13T06:55:25.103Z,40.69
2023-04-13T06:58:27.781Z,40.75
2023-04-13T07:01:30.675Z,40.71
2023-04-13T07:04:35.083Z,40.76
2023-04-13T07:07:37.885Z,40.67
2023-04-13T07:10:41.201Z,40.77
2023-04-13T07:13:44.029Z,40.70
2023-04-13T07:16:46.832Z,40.82
2023-04-13T07:19:51.000Z,40.70
2023-04-13T07:22:53.767Z,40.70
2023-04-13T07:25:56.564Z,40.73
2023-04-13T07:28:59.556Z,40.57
2023-04-13T07:32:03.220Z,40.58
2023-04-13T07:35:07.804Z,40.70
2023-04-13T07:38:10.712Z,40.96
2023-04-13T07:41:13.408Z,40.90
2023-04-13T07:44:16.422Z,40.95
2023-04-13T07:47:19.204Z,40.74
2023-04-13T07:50:23.414Z,40.80
2023-04-13T07:53:26.228Z,40.86
2023-04-13T07:56:30.102Z,40.88
2023-04-13T07:59:33.004Z,40.77
2023-04-13T08:02:36.948Z,40.65
2023-04-13T08:05:47.428Z,40.68
2023-04-13T08:08:50.304Z,40.74
2023-04-13T08:11:53.152Z,40.79
2023-04-13T08:14:55.999Z,40.78
2023-04-13T08:17:59.842Z,40.87
2023-04-13T08:21:08.012Z,40.70
2023-04-13T08:24:10.789Z,40.69
2023-04-13T08:27:13.585Z,40.53
2023-04-13T08:30:16.461Z,40.51
2023-04-13T08:33:19.215Z,40.63
2023-04-13T08:36:24.395Z,40.69
2023-04-13T08:39:28.228Z,40.70
2023-04-13T08:42:31.482Z,40.53
2023-04-13T08:45:38.369Z,40.61
2023-04-13T08:48:53.403Z,40.70
2023-04-13T08:52:00.026Z,40.66
2023-04-13T08:55:05.092Z,40.61
2023-04-13T08:58:08.458Z,40.70
2023-04-13T09:01:13.611Z,40.78
2023-04-13T09:04:19.100Z,40.77
2023-04-13T09:07:26.753Z,40.90
2023-04-13T09:10:29.618Z,40.91
2023-04-13T09:13:32.585Z,40.92
2023-04-13T09:16:39.744Z,40.79
2023-04-13T09:19:42.537Z,40.83
2023-04-13T09:22:46.715Z,40.58
2023-04-13T09:26:04.370Z,40.80
2023-04-13T09:29:07.383Z,40.79
2023-04-13T09:32:19.616Z,40.67
2023-04-13T09:35:22.640Z,40.56
2023-04-13T09:38:32.933Z,40.51
2023-04-13T09:41:36.636Z,40.59
2023-04-13T09:44:39.458Z,40.57
2023-04-13T09:47:42.503Z,40.85
2023-04-13T09:50:45.472Z,40.49
2023-04-13T09:53:50.594Z,40.66
2023-04-13T09:56:54.725Z,40.51
2023-04-13T10:00:00.978Z,40.39
2023-04-13T10:03:04.392Z,40.33
2023-04-13T10:06:08.191Z,40.42
2023-04-13T10:09:13.028Z,40.69
2023-04-13T10:12:17.907Z,40.54
2023-04-13T10:15:28.182Z,40.46
2023-04-13T10:18:34.860Z,40.45
2023-04-13T10:21:39.388Z,40.60
2023-04-13T10:24:44.860Z,40.57
2023-04-13T10:27:56.906Z,39.95
2023-04-13T10:31:02.556Z,40.57
2023-04-13T10:34:05.788Z,40.62
2023-04-13T10:37:19.405Z,40.19
2023-04-13T10:40:23.630Z,40.17
2023-04-13T10:43:27.627Z,41.05
2023-04-13T10:46:30.603Z,41.20
2023-04-13T10:49:33.588Z,41.45
2023-04-13T10:52:36.909Z,42.07
2023-04-13T10:55:41.034Z,41.74
2023-04-13T10:58:43.795Z,41.25
2023-04-13T11:01:46.547Z,40.56
2023-04-13T11:04:50.286Z,40.86
2023-04-13T11:07:55.466Z,40.85
2023-04-13T11:10:59.990Z,40.99
2023-04-13T11:14:03.940Z,40.89
2023-04-13T11:17:08.251Z,40.81
2023-04-13T11:20:12.074Z,40.79
2023-04-13T11:23:18.317Z,40.83
2023-04-13T11:26:33.945Z,40.96
2023-04-13T11:29:36.732Z,40.88
2023-04-13T11:32:42.813Z,40.66
2023-04-13T11:35:49.770Z,40.82
2023-04-13T11:38:54.945Z,40.77
2023-04-13T11:41:59.094Z,40.95
2023-04-13T11:45:01.852Z,40.76
2023-04-13T11:48:06.445Z,40.51
2023-04-13T11:51:12.119Z,40.44
2023-04-13T11:54:15.175Z,40.54
2023-04-13T11:57:19.411Z,40.16
2023-04-13T12:00:24.744Z,40.34
2023-04-13T12:03:52.813Z,40.39
2023-04-13T12:06:59.182Z,40.37
2023-04-13T12:10:06.020Z,40.41
2023-04-13T12:16:55.459Z,40.61
2023-04-13T12:19:51.879Z,40.34
2023-04-13T12:23:02.970Z,40.35
2023-04-13T12:26:33.164Z,40.35
2023-04-13T12:29:39.599Z,40.70
2023-04-13T12:32:43.611Z,40.47
2023-04-13T12:35:46.455Z,40.59
2023-04-13T12:38:50.354Z,40.33
2023-04-13T12:41:53.116Z,40.49
2023-04-13T12:44:57.258Z,40.50
2023-04-13T12:48:00.100Z,40.71
2023-04-13T12:51:02.915Z,40.45
2023-04-13T12:54:08.951Z,40.80
2023-04-13T12:57:11.742Z,40.97
2023-04-13T13:00:17.533Z,40.64
2023-04-13T13:03:20.535Z,40.39
2023-04-13T13:06:23.307Z,40.33
2023-04-13T13:09:26.092Z,40.64
2023-04-13T13:12:30.240Z,40.64
2023-04-13T13:15:35.423Z,41.60
2023-04-13T13:18:49.829Z,41.25
2023-04-13T13:21:53.729Z,41.57
2023-04-13T13:24:57.038Z,41.91
2023-04-13T13:28:13.157Z,41.93
2023-04-13T13:31:17.899Z,41.48
2023-04-13T13:34:20.699Z,41.53
2023-04-13T13:37:23.578Z,41.77
2023-04-13T13:40:27.504Z,41.33
2023-04-13T13:43:30.356Z,41.56
2023-04-13T13:46:34.545Z,41.50
2023-04-13T13:49:37.375Z,41.79
2023-04-13T13:52:45.897Z,41.50
2023-04-13T13:55:58.412Z,41.41
2023-04-13T13:59:01.404Z,41.89
2023-04-13T14:02:06.270Z,42.04
2023-04-13T14:05:13.168Z,42.11
2023-04-13T14:08:16.066Z,42.15
2023-04-13T14:11:18.898Z,42.11
2023-04-13T14:14:22.747Z,42.15
2023-04-13T14:17:27.075Z,42.06
2023-04-13T14:20:29.903Z,42.01
2023-04-13T14:23:34.658Z,41.95
2023-04-13T14:26:38.413Z,41.87
2023-04-13T14:29:41.229Z,41.91
2023-04-13T14:32:46.920Z,41.87
2023-04-13T14:35:49.758Z,41.95
2023-04-13T14:38:52.718Z,41.85
2023-04-13T14:41:56.801Z,41.94
2023-04-13T14:44:59.796Z,41.80
2023-04-13T14:48:04.094Z,41.88
2023-04-13T14:51:07.204Z,41.93
2023-04-13T14:54:10.108Z,41.95
2023-04-13T14:57:12.992Z,41.98
2023-04-13T15:00:21.552Z,41.90
2023-04-13T15:03:26.670Z,41.67
2023-04-13T15:06:30.019Z,41.95
2023-04-13T15:09:33.265Z,41.75
2023-04-13T15:12:36.569Z,41.87
2023-04-13T15:15:40.504Z,42.06
2023-04-13T15:18:44.709Z,42.02
2023-04-13T15:21:47.513Z,41.97
2023-04-13T15:24:50.373Z,41.98
2023-04-13T15:27:54.344Z,41.96
2023-04-13T15:30:57.153Z,42.14
2023-04-13T15:34:01.340Z,42.09
2023-04-13T15:37:04.160Z,42.07
2023-04-13T15:40:08.095Z,41.82
2023-04-13T15:43:10.859Z,41.85
2023-04-13T15:46:13.722Z,41.48
2023-04-13T15:49:17.955Z,41.42
2023-04-13T15:52:20.919Z,41.79
2023-04-13T15:55:23.824Z,42.20
2023-04-13T15:58:26.641Z,42.43
2023-04-13T16:01:29.468Z,42.07
2023-04-13T16:04:33.776Z,42.01
2023-04-13T16:07:36.892Z,42.46
2023-04-13T16:10:39.768Z,42.19
2023-04-13T16:13:49.329Z,42.02
2023-04-13T16:16:54.583Z,42.04
2023-04-13T16:19:59.425Z,41.94
2023-04-13T16:23:04.985Z,41.93
2023-04-13T16:26:07.819Z,42.12
2023-04-13T16:29:11.030Z,42.09
2023-04-13T16:32:13.757Z,42.11
2023-04-13T16:35:17.973Z,41.96
2023-04-13T16:38:20.770Z,42.00
2023-04-13T16:41:23.611Z,42.00
2023-04-13T16:44:26.739Z,42.18
2023-04-13T16:47:29.874Z,42.09
2023-04-13T16:50:37.055Z,42.19
2023-04-13T16:53:44.109Z,41.73
2023-04-13T16:56:47.196Z,41.85
2023-04-13T16:59:50.015Z,42.08
2023-04-13T17:02:52.918Z,41.46
2023-04-13T17:05:57.111Z,42.07
2023-04-13T17:09:00.086Z,41.91
2023-04-13T17:12:03.065Z,41.89
2023-04-13T17:15:06.343Z,41.94
2023-04-13T17:18:09.295Z,42.01
2023-04-13T17:21:13.778Z,41.84
2023-04-13T17:24:16.718Z,41.83
2023-04-13T17:27:19.632Z,41.75
2023-04-13T17:30:22.707Z,41.65
2023-04-13T17:33:28.070Z,41.80
2023-04-13T17:36:32.216Z,41.79
2023-04-13T17:39:36.180Z,41.73
2023-04-13T17:42:38.988Z,41.67
2023-04-13T17:45:41.827Z,41.74
2023-04-13T17:48:44.673Z,41.75
2023-04-13T17:51:49.362Z,41.74
2023-04-13T17:54:52.138Z,41.71
2023-04-13T17:57:54.978Z,41.67
2023-04-13T18:00:58.233Z,41.62
2023-04-13T18:04:03.968Z,41.48
2023-04-13T18:07:08.286Z,41.54
2023-04-13T18:10:11.564Z,41.80
2023-04-13T18:13:14.350Z,41.70
2023-04-13T18:16:17.219Z,41.94
2023-04-13T18:19:20.018Z,41.80
2023-04-13T18:22:24.411Z,41.75
2023-04-13T18:25:27.195Z,41.80
2023-04-13T18:28:30.737Z,41.49
2023-04-13T18:31:36.265Z,41.54
2023-04-13T18:34:40.202Z,41.57
2023-04-13T18:37:44.306Z,41.49
2023-04-13T18:40:47.499Z,44.13
2023-04-13T18:43:50.376Z,46.19
2023-04-13T18:46:53.244Z,44.78
2023-04-13T18:49:57.152Z,44.73
2023-04-13T18:53:02.458Z,44.86
2023-04-13T18:56:07.926Z,44.92
2023-04-13T18:59:10.750Z,44.54
2023-04-13T19:02:13.690Z,44.38
2023-04-13T19:05:16.950Z,44.23
2023-04-13T19:08:21.104Z,44.36
2023-04-13T19:11:24.611Z,44.95
2023-04-13T19:14:27.730Z,44.55
2023-04-13T19:17:30.949Z,44.27
2023-04-13T19:20:33.769Z,44.39
2023-04-13T19:23:40.298Z,44.39
2023-04-13T19:26:43.559Z,46.19
2023-04-13T19:29:46.327Z,45.14
2023-04-13T19:32:50.088Z,44.79
2023-04-13T19:35:52.939Z,44.63
2023-04-13T19:38:57.078Z,44.82
2023-04-13T19:42:00.303Z,44.46
2023-04-13T19:45:03.098Z,44.71
2023-04-13T19:48:06.746Z,44.24
2023-04-13T19:51:09.586Z,43.97
2023-04-13T19:54:14.005Z,44.00
2023-04-13T19:57:16.823Z,44.45
2023-04-13T20:00:20.743Z,44.38
2023-04-13T20:03:23.970Z,43.80
2023-04-13T20:06:28.362Z,43.88
2023-04-13T20:09:33.033Z,43.75
2023-04-13T20:12:35.905Z,44.04
2023-04-13T20:15:39.489Z,43.87
2023-04-13T20:18:43.916Z,43.73
2023-04-13T20:21:46.825Z,43.72
2023-04-13T20:24:50.951Z,43.58
2023-04-13T20:27:53.675Z,43.47
2023-04-13T20:30:56.486Z,43.53
2023-04-13T20:33:59.875Z,43.52
2023-04-13T20:37:03.015Z,43.58
2023-04-13T20:40:10.560Z,43.45
2023-04-13T20:43:15.612Z,43.34
2023-04-13T20:46:18.468Z,43.26
2023-04-13T20:49:23.184Z,43.22
2023-04-13T20:52:27.397Z,43.36
2023-04-13T20:55:31.645Z,43.31
2023-04-13T20:58:34.502Z,43.35
2023-04-13T21:01:37.741Z,43.37
2023-04-13T21:04:41.322Z,43.60
2023-04-13T21:07:44.068Z,43.46
2023-04-13T21:10:48.189Z,43.44
2023-04-13T21:13:50.962Z,43.03
2023-04-13T21:16:53.898Z,43.07
2023-04-13T21:19:56.772Z,43.33
2023-04-13T21:22:59.653Z,42.49
2023-04-13T21:26:03.827Z,42.81
2023-04-13T21:29:07.710Z,43.38
2023-04-13T21:32:10.772Z,43.57
2023-04-13T21:35:15.270Z,43.11
2023-04-13T21:38:18.078Z,43.51
2023-04-13T21:41:22.583Z,42.98
2023-04-13T21:44:29.688Z,42.99
2023-04-13T21:47:33.024Z,43.08
2023-04-13T21:50:35.790Z,43.27
2023-04-13T21:53:39.210Z,43.15
2023-04-13T21:56:43.297Z,43.15
2023-04-13T21:59:46.096Z,43.03
2023-04-13T22:02:49.544Z,43.13
2023-04-13T22:05:52.474Z,43.22
2023-04-13T22:08:55.902Z,43.18
2023-04-13T22:12:00.004Z,42.93
2023-04-13T22:15:02.832Z,43.18
2023-04-13T22:18:05.822Z,43.11
2023-04-13T22:21:08.669Z,42.86
2023-04-13T22:24:11.424Z,42.85
2023-04-13T22:27:15.702Z,42.78
2023-04-13T22:30:18.604Z,42.57
2023-04-13T22:33:21.578Z,42.64
2023-04-13T22:36:24.342Z,42.56
2023-04-13T22:39:29.445Z,42.67
2023-04-13T22:42:33.626Z,42.53
2023-04-13T22:45:36.449Z,42.63
2023-04-13T22:48:39.269Z,42.57
2023-04-13T22:51:42.267Z,42.50
2023-04-13T22:54:45.020Z,42.35
2023-04-13T22:57:49.204Z,42.62
2023-04-13T23:00:51.961Z,42.42
2023-04-13T23:03:55.695Z,42.57
2023-04-13T23:06:58.657Z,42.51
2023-04-13T23:10:01.719Z,42.48
2023-04-13T23:13:05.887Z,42.27
2023-04-13T23:16:08.828Z,42.29
2023-04-13T23:19:11.722Z,42.47
2023-04-13T23:22:14.523Z,42.49
2023-04-13T23:25:17.504Z,42.37
2023-04-13T23:28:21.677Z,42.44
2023-04-13T23:31:24.457Z,42.31
2023-04-13T23:34:27.247Z,42.39
2023-04-13T23:37:30.119Z,42.18
2023-04-13T23:40:32.910Z,42.18
2023-04-13T23:43:37.060Z,42.34
2023-04-13T23:46:39.835Z,42.35
2023-04-13T23:49:42.737Z,42.25
2023-04-13T23:52:45.806Z,42.35
2023-04-13T23:55:48.585Z,42.26
2023-04-13T23:58:52.696Z,42.26
